sensor_id;sensor_type;location;lat;lon;timestamp;pressure;altitude;pressure_sealevel;temperature;humidity
37610;BME280;23457;51.966;8.230;2022-07-23T00:00:09;101144.38;;;17.63;93.21
37610;BME280;23457;51.966;8.230;2022-07-23T00:02:35;101138.28;;;17.53;94.55
37610;BME280;23457;51.966;8.230;2022-07-23T00:05:02;101138.22;;;17.63;93.62
37610;BME280;23457;51.966;8.230;2022-07-23T00:07:29;101140.84;;;17.67;93.79
37610;BME280;23457;51.966;8.230;2022-07-23T00:09:55;101142.59;;;17.62;93.99
37610;BME280;23457;51.966;8.230;2022-07-23T00:12:22;101133.28;;;16.99;97.13
37610;BME280;23457;51.966;8.230;2022-07-23T00:14:48;101140.31;;;16.95;98.52
37610;BME280;23457;51.966;8.230;2022-07-23T00:17:15;101140.22;;;17.12;97.09
37610;BME280;23457;51.966;8.230;2022-07-23T00:19:41;101147.16;;;17.28;96.55
37610;BME280;23457;51.966;8.230;2022-07-23T00:22:08;101143.66;;;17.34;96.79
37610;BME280;23457;51.966;8.230;2022-07-23T00:24:35;101147.09;;;17.46;96.30
37610;BME280;23457;51.966;8.230;2022-07-23T00:27:01;101162.81;;;17.49;96.58
37610;BME280;23457;51.966;8.230;2022-07-23T00:29:28;101158.41;;;17.53;96.00
37610;BME280;23457;51.966;8.230;2022-07-23T00:31:54;101158.34;;;17.62;96.27
37610;BME280;23457;51.966;8.230;2022-07-23T00:34:21;101161.88;;;17.70;96.44
37610;BME280;23457;51.966;8.230;2022-07-23T00:36:47;101172.34;;;17.73;96.36
37610;BME280;23457;51.966;8.230;2022-07-23T00:39:14;101182.00;;;17.73;97.00
37610;BME280;23457;51.966;8.230;2022-07-23T00:41:40;101185.47;;;17.81;95.51
37610;BME280;23457;51.966;8.230;2022-07-23T00:44:21;101185.47;;;17.78;95.05
37610;BME280;23457;51.966;8.230;2022-07-23T00:46:53;101195.97;;;17.85;93.84
37610;BME280;23457;51.966;8.230;2022-07-23T00:49:21;101201.16;;;17.90;93.76
37610;BME280;23457;51.966;8.230;2022-07-23T00:51:48;101191.53;;;17.92;93.31
37610;BME280;23457;51.966;8.230;2022-07-23T00:54:16;101199.28;;;18.10;93.11
37610;BME280;23457;51.966;8.230;2022-07-23T00:56:43;101197.66;;;17.91;94.84
37610;BME280;23457;51.966;8.230;2022-07-23T00:59:10;101185.31;;;18.02;95.00
37610;BME280;23457;51.966;8.230;2022-07-23T01:01:38;101189.59;;;18.12;94.22
37610;BME280;23457;51.966;8.230;2022-07-23T01:04:04;101180.91;;;18.06;93.75
37610;BME280;23457;51.966;8.230;2022-07-23T01:06:36;101169.59;;;17.96;94.73
37610;BME280;23457;51.966;8.230;2022-07-23T01:09:06;101168.97;;;17.47;96.46
37610;BME280;23457;51.966;8.230;2022-07-23T01:11:35;101163.84;;;17.12;99.99
37610;BME280;23457;51.966;8.230;2022-07-23T01:14:15;101160.34;;;17.10;99.72
37610;BME280;23457;51.966;8.230;2022-07-23T01:16:44;101158.59;;;17.15;100.00
37610;BME280;23457;51.966;8.230;2022-07-23T01:19:11;101145.41;;;17.35;100.00
37610;BME280;23457;51.966;8.230;2022-07-23T01:21:44;101139.22;;;17.37;100.00
37610;BME280;23457;51.966;8.230;2022-07-23T01:24:12;101144.47;;;17.40;100.00
37610;BME280;23457;51.966;8.230;2022-07-23T01:26:43;101144.41;;;17.48;100.00
37610;BME280;23457;51.966;8.230;2022-07-23T01:29:10;101133.88;;;17.60;100.00
37610;BME280;23457;51.966;8.230;2022-07-23T01:31:37;101131.31;;;17.43;100.00
37610;BME280;23457;51.966;8.230;2022-07-23T01:34:04;101126.16;;;17.28;100.00
37610;BME280;23457;51.966;8.230;2022-07-23T01:36:30;101120.25;;;16.71;100.00
37610;BME280;23457;51.966;8.230;2022-07-23T01:38:57;101126.34;;;16.73;100.00
37610;BME280;23457;51.966;8.230;2022-07-23T01:41:24;101121.97;;;16.60;100.00
37610;BME280;23457;51.966;8.230;2022-07-23T01:43:52;101116.75;;;16.48;100.00
37610;BME280;23457;51.966;8.230;2022-07-23T01:46:18;101114.13;;;16.49;100.00
37610;BME280;23457;51.966;8.230;2022-07-23T01:48:45;101094.91;;;16.43;100.00
37610;BME280;23457;51.966;8.230;2022-07-23T01:51:12;101103.63;;;16.69;100.00
37610;BME280;23457;51.966;8.230;2022-07-23T01:53:38;101105.41;;;16.46;100.00
37610;BME280;23457;51.966;8.230;2022-07-23T01:56:05;101109.75;;;16.68;100.00
37610;BME280;23457;51.966;8.230;2022-07-23T01:58:31;101096.66;;;16.44;100.00
37610;BME280;23457;51.966;8.230;2022-07-23T02:00:59;101096.59;;;16.59;100.00
37610;BME280;23457;51.966;8.230;2022-07-23T02:03:26;101098.34;;;16.81;100.00
37610;BME280;23457;51.966;8.230;2022-07-23T02:05:53;101103.59;;;16.81;100.00
37610;BME280;23457;51.966;8.230;2022-07-23T02:08:19;101087.81;;;16.84;100.00
37610;BME280;23457;51.966;8.230;2022-07-23T02:10:46;101097.50;;;16.66;100.00
37610;BME280;23457;51.966;8.230;2022-07-23T02:13:12;101099.25;;;16.65;100.00
37610;BME280;23457;51.966;8.230;2022-07-23T02:15:46;101103.59;;;16.72;100.00
37610;BME280;23457;51.966;8.230;2022-07-23T02:18:12;101113.19;;;16.86;100.00
37610;BME280;23457;51.966;8.230;2022-07-23T02:20:39;101115.81;;;16.86;100.00
37610;BME280;23457;51.966;8.230;2022-07-23T02:23:06;101121.94;;;16.89;100.00
37610;BME280;23457;51.966;8.230;2022-07-23T02:25:33;101118.44;;;16.89;100.00
37610;BME280;23457;51.966;8.230;2022-07-23T02:28:00;101116.69;;;16.88;100.00
37610;BME280;23457;51.966;8.230;2022-07-23T02:30:26;101114.06;;;16.95;100.00
37610;BME280;23457;51.966;8.230;2022-07-23T02:32:53;101120.13;;;16.99;100.00
37610;BME280;23457;51.966;8.230;2022-07-23T02:35:19;101129.81;;;16.84;100.00
37610;BME280;23457;51.966;8.230;2022-07-23T02:37:46;101126.31;;;16.96;100.00
37610;BME280;23457;51.966;8.230;2022-07-23T02:40:14;101114.94;;;16.94;100.00
37610;BME280;23457;51.966;8.230;2022-07-23T02:42:41;101107.94;;;16.93;100.00
37610;BME280;23457;51.966;8.230;2022-07-23T02:45:07;101106.19;;;16.89;100.00
37610;BME280;23457;51.966;8.230;2022-07-23T02:47:34;101107.06;;;16.91;100.00
37610;BME280;23457;51.966;8.230;2022-07-23T02:50:01;101107.00;;;16.99;100.00
37610;BME280;23457;51.966;8.230;2022-07-23T02:52:27;101108.81;;;16.84;100.00
37610;BME280;23457;51.966;8.230;2022-07-23T02:54:54;101112.34;;;16.74;100.00
37610;BME280;23457;51.966;8.230;2022-07-23T02:57:20;101116.69;;;16.91;100.00
37610;BME280;23457;51.966;8.230;2022-07-23T02:59:47;101113.22;;;16.81;100.00
37610;BME280;23457;51.966;8.230;2022-07-23T03:02:13;101121.06;;;16.86;100.00
37610;BME280;23457;51.966;8.230;2022-07-23T03:04:40;101119.31;;;16.92;100.00
37610;BME280;23457;51.966;8.230;2022-07-23T03:07:08;101122.75;;;17.02;100.00
37610;BME280;23457;51.966;8.230;2022-07-23T03:09:35;101111.44;;;16.86;100.00
37610;BME280;23457;51.966;8.230;2022-07-23T03:12:02;101119.31;;;16.92;100.00
37610;BME280;23457;51.966;8.230;2022-07-23T03:14:28;101113.13;;;16.99;100.00
37610;BME280;23457;51.966;8.230;2022-07-23T03:16:55;101113.19;;;16.90;100.00
37610;BME280;23457;51.966;8.230;2022-07-23T03:19:22;101107.97;;;16.78;100.00
37610;BME280;23457;51.966;8.230;2022-07-23T03:21:49;101112.38;;;16.71;100.00
37610;BME280;23457;51.966;8.230;2022-07-23T03:24:15;101096.63;;;16.53;100.00
37610;BME280;23457;51.966;8.230;2022-07-23T03:26:44;101105.34;;;16.73;100.00
37610;BME280;23457;51.966;8.230;2022-07-23T03:29:11;101110.69;;;16.00;100.00
37610;BME280;23457;51.966;8.230;2022-07-23T03:31:38;101115.03;;;16.24;100.00
37610;BME280;23457;51.966;8.230;2022-07-23T03:34:04;101116.75;;;16.49;100.00
37610;BME280;23457;51.966;8.230;2022-07-23T03:36:31;101104.50;;;16.56;100.00
37610;BME280;23457;51.966;8.230;2022-07-23T03:38:58;101112.38;;;16.65;100.00
37610;BME280;23457;51.966;8.230;2022-07-23T03:41:26;101112.38;;;16.56;100.00
37610;BME280;23457;51.966;8.230;2022-07-23T03:43:53;101108.94;;;16.10;100.00
37610;BME280;23457;51.966;8.230;2022-07-23T03:46:19;101111.53;;;15.96;100.00
37610;BME280;23457;51.966;8.230;2022-07-23T03:48:46;101101.94;;;15.80;100.00
37610;BME280;23457;51.966;8.230;2022-07-23T03:51:13;101103.63;;;15.45;100.00
37610;BME280;23457;51.966;8.230;2022-07-23T03:53:39;101106.19;;;15.32;100.00
37610;BME280;23457;51.966;8.230;2022-07-23T03:56:06;101107.19;;;15.68;100.00
37610;BME280;23457;51.966;8.230;2022-07-23T03:58:33;101109.81;;;15.94;100.00
37610;BME280;23457;51.966;8.230;2022-07-23T04:01:00;101094.94;;;16.12;100.00
37610;BME280;23457;51.966;8.230;2022-07-23T04:03:27;101105.44;;;16.06;100.00
37610;BME280;23457;51.966;8.230;2022-07-23T04:05:53;101100.19;;;16.11;100.00
37610;BME280;23457;51.966;8.230;2022-07-23T04:08:20;101110.66;;;16.25;100.00
37610;BME280;23457;51.966;8.230;2022-07-23T04:10:47;101110.66;;;16.34;100.00
37610;BME280;23457;51.966;8.230;2022-07-23T04:13:14;101119.44;;;16.21;100.00
37610;BME280;23457;51.966;8.230;2022-07-23T04:15:40;101103.69;;;16.05;100.00
37610;BME280;23457;51.966;8.230;2022-07-23T04:18:07;101117.69;;;15.92;100.00
37610;BME280;23457;51.966;8.230;2022-07-23T04:20:34;101117.66;;;16.00;100.00
37610;BME280;23457;51.966;8.230;2022-07-23T04:23:06;101117.69;;;16.15;100.00
37610;BME280;23457;51.966;8.230;2022-07-23T04:25:32;101105.41;;;16.25;100.00
37610;BME280;23457;51.966;8.230;2022-07-23T04:27:59;101108.94;;;16.33;100.00
37610;BME280;23457;51.966;8.230;2022-07-23T04:30:25;101101.91;;;16.41;100.00
37610;BME280;23457;51.966;8.230;2022-07-23T04:32:52;101108.00;;;16.52;100.00
37610;BME280;23457;51.966;8.230;2022-07-23T04:35:19;101106.22;;;16.62;100.00
37610;BME280;23457;51.966;8.230;2022-07-23T04:37:45;101100.13;;;16.63;100.00
37610;BME280;23457;51.966;8.230;2022-07-23T04:40:12;101124.59;;;16.72;100.00
37610;BME280;23457;51.966;8.230;2022-07-23T04:42:39;101122.84;;;16.76;100.00
37610;BME280;23457;51.966;8.230;2022-07-23T04:45:06;101125.44;;;16.85;100.00
37610;BME280;23457;51.966;8.230;2022-07-23T04:47:38;101117.59;;;16.77;100.00
37610;BME280;23457;51.966;8.230;2022-07-23T04:50:05;101120.19;;;16.85;100.00
37610;BME280;23457;51.966;8.230;2022-07-23T04:52:32;101128.09;;;16.80;100.00
37610;BME280;23457;51.966;8.230;2022-07-23T04:54:58;101123.75;;;16.58;100.00
37610;BME280;23457;51.966;8.230;2022-07-23T04:57:25;101128.13;;;16.67;100.00
37610;BME280;23457;51.966;8.230;2022-07-23T04:59:51;101122.88;;;16.62;100.00
37610;BME280;23457;51.966;8.230;2022-07-23T05:02:18;101125.50;;;16.67;100.00
37610;BME280;23457;51.966;8.230;2022-07-23T05:04:44;101128.09;;;16.77;100.00
37610;BME280;23457;51.966;8.230;2022-07-23T05:07:11;101138.59;;;16.83;100.00
37610;BME280;23457;51.966;8.230;2022-07-23T05:09:38;101126.31;;;16.89;100.00
37610;BME280;23457;51.966;8.230;2022-07-23T05:12:04;101135.06;;;16.97;100.00
37610;BME280;23457;51.966;8.230;2022-07-23T05:14:31;101136.81;;;16.95;100.00
37610;BME280;23457;51.966;8.230;2022-07-23T05:16:58;101130.63;;;17.02;100.00
37610;BME280;23457;51.966;8.230;2022-07-23T05:19:24;101134.13;;;17.05;100.00
37610;BME280;23457;51.966;8.230;2022-07-23T05:21:51;101129.75;;;17.09;100.00
37610;BME280;23457;51.966;8.230;2022-07-23T05:24:17;101127.13;;;17.07;100.00
37610;BME280;23457;51.966;8.230;2022-07-23T05:26:44;101135.88;;;17.08;100.00
37610;BME280;23457;51.966;8.230;2022-07-23T05:29:11;101128.94;;;16.87;100.00
37610;BME280;23457;51.966;8.230;2022-07-23T05:31:37;101128.09;;;16.83;100.00
37610;BME280;23457;51.966;8.230;2022-07-23T05:34:04;101131.56;;;16.95;100.00
37610;BME280;23457;51.966;8.230;2022-07-23T05:36:32;101138.47;;;17.15;100.00
37610;BME280;23457;51.966;8.230;2022-07-23T05:38:58;101144.47;;;17.43;100.00
37610;BME280;23457;51.966;8.230;2022-07-23T05:41:25;101126.09;;;17.37;100.00
37610;BME280;23457;51.966;8.230;2022-07-23T05:43:52;101139.28;;;17.24;100.00
37610;BME280;23457;51.966;8.230;2022-07-23T05:46:19;101144.47;;;17.40;100.00
37610;BME280;23457;51.966;8.230;2022-07-23T05:48:46;101154.88;;;17.68;100.00
37610;BME280;23457;51.966;8.230;2022-07-23T05:51:23;101152.19;;;17.74;100.00
37610;BME280;23457;51.966;8.230;2022-07-23T05:53:50;101144.28;;;17.78;100.00
37610;BME280;23457;51.966;8.230;2022-07-23T05:56:18;101149.63;;;17.65;100.00
37610;BME280;23457;51.966;8.230;2022-07-23T05:58:44;101162.78;;;17.55;100.00
37610;BME280;23457;51.966;8.230;2022-07-23T06:01:11;101163.56;;;17.76;100.00
37610;BME280;23457;51.966;8.230;2022-07-23T06:03:38;101164.44;;;17.81;100.00
37610;BME280;23457;51.966;8.230;2022-07-23T06:06:05;101159.34;;;17.43;100.00
37610;BME280;23457;51.966;8.230;2022-07-23T06:08:32;101166.44;;;17.29;100.00
37610;BME280;23457;51.966;8.230;2022-07-23T06:10:59;101161.88;;;17.61;100.00
37610;BME280;23457;51.966;8.230;2022-07-23T06:13:25;101168.06;;;17.48;100.00
37610;BME280;23457;51.966;8.230;2022-07-23T06:15:52;101160.19;;;17.51;100.00
37610;BME280;23457;51.966;8.230;2022-07-23T06:18:18;101156.53;;;17.81;100.00
37610;BME280;23457;51.966;8.230;2022-07-23T06:20:45;101167.97;;;17.74;100.00
37610;BME280;23457;51.966;8.230;2022-07-23T06:23:16;101170.53;;;17.84;98.74
37610;BME280;23457;51.966;8.230;2022-07-23T06:25:42;101176.75;;;17.73;100.00
37610;BME280;23457;51.966;8.230;2022-07-23T06:28:09;101168.84;;;17.74;100.00
37610;BME280;23457;51.966;8.230;2022-07-23T06:30:36;101184.50;;;17.89;100.00
37610;BME280;23457;51.966;8.230;2022-07-23T06:33:04;101173.00;;;18.09;100.00
37610;BME280;23457;51.966;8.230;2022-07-23T06:35:30;101187.16;;;17.88;100.00
37610;BME280;23457;51.966;8.230;2022-07-23T06:37:57;101189.03;;;17.71;100.00
37610;BME280;23457;51.966;8.230;2022-07-23T06:40:23;101194.28;;;17.62;100.00
37610;BME280;23457;51.966;8.230;2022-07-23T06:42:50;101197.84;;;17.48;100.00
37610;BME280;23457;51.966;8.230;2022-07-23T06:45:17;101195.28;;;17.41;100.00
37610;BME280;23457;51.966;8.230;2022-07-23T06:47:44;101190.91;;;17.38;100.00
37610;BME280;23457;51.966;8.230;2022-07-23T06:50:11;101195.22;;;17.50;100.00
37610;BME280;23457;51.966;8.230;2022-07-23T06:52:37;101190.72;;;17.82;100.00
37610;BME280;23457;51.966;8.230;2022-07-23T06:55:08;101196.91;;;17.69;100.00
37610;BME280;23457;51.966;8.230;2022-07-23T06:57:35;101196.78;;;17.87;100.00
37610;BME280;23457;51.966;8.230;2022-07-23T07:00:03;101197.59;;;18.00;100.00
37610;BME280;23457;51.966;8.230;2022-07-23T07:02:29;101197.72;;;17.82;100.00
37610;BME280;23457;51.966;8.230;2022-07-23T07:04:56;101188.97;;;17.75;100.00
37610;BME280;23457;51.966;8.230;2022-07-23T07:07:30;101201.16;;;17.90;100.00
37610;BME280;23457;51.966;8.230;2022-07-23T07:09:56;101192.31;;;18.02;99.51
37610;BME280;23457;51.966;8.230;2022-07-23T07:12:23;101197.66;;;17.91;100.00
37610;BME280;23457;51.966;8.230;2022-07-23T07:14:49;101203.69;;;18.07;98.92
37610;BME280;23457;51.966;8.230;2022-07-23T07:17:16;101209.59;;;18.38;96.93
37610;BME280;23457;51.966;8.230;2022-07-23T07:19:42;101216.66;;;18.30;94.61
37610;BME280;23457;51.966;8.230;2022-07-23T07:22:09;101209.63;;;18.35;98.77
37610;BME280;23457;51.966;8.230;2022-07-23T07:24:36;101214.81;;;18.44;98.48
37610;BME280;23457;51.966;8.230;2022-07-23T07:27:04;101215.59;;;18.53;96.18
37610;BME280;23457;51.966;8.230;2022-07-23T07:29:30;101200.56;;;18.69;96.86
37610;BME280;23457;51.966;8.230;2022-07-23T07:31:57;101205.84;;;18.66;93.64
37610;BME280;23457;51.966;8.230;2022-07-23T07:34:24;101214.47;;;18.83;91.98
37610;BME280;23457;51.966;8.230;2022-07-23T07:36:50;101229.63;;;18.58;94.89
37610;BME280;23457;51.966;8.230;2022-07-23T07:39:17;101218.22;;;18.55;92.83
37610;BME280;23457;51.966;8.230;2022-07-23T07:41:44;101224.53;;;18.34;93.62
37610;BME280;23457;51.966;8.230;2022-07-23T07:44:10;101199.06;;;18.38;93.22
37610;BME280;23457;51.966;8.230;2022-07-23T07:46:37;101219.78;;;18.80;93.12
37610;BME280;23457;51.966;8.230;2022-07-23T07:49:03;101227.66;;;18.83;92.83
37610;BME280;23457;51.966;8.230;2022-07-23T07:51:31;101219.13;;;18.51;94.17
37610;BME280;23457;51.966;8.230;2022-07-23T07:54:00;101226.06;;;18.63;90.11
37610;BME280;23457;51.966;8.230;2022-07-23T07:56:27;101217.91;;;18.91;92.12
37610;BME280;23457;51.966;8.230;2022-07-23T07:58:54;101232.56;;;19.15;91.44
37610;BME280;23457;51.966;8.230;2022-07-23T08:01:20;101231.94;;;18.93;89.44
37610;BME280;23457;51.966;8.230;2022-07-23T08:03:47;101233.13;;;18.60;89.39
37610;BME280;23457;51.966;8.230;2022-07-23T08:06:14;101233.81;;;18.79;89.18
37610;BME280;23457;51.966;8.230;2022-07-23T08:08:40;101239.19;;;18.70;87.49
37610;BME280;23457;51.966;8.230;2022-07-23T08:11:07;101241.84;;;18.64;86.34
37610;BME280;23457;51.966;8.230;2022-07-23T08:13:33;101238.88;;;19.01;82.67
37610;BME280;23457;51.966;8.230;2022-07-23T08:16:00;101245.94;;;18.99;90.52
37610;BME280;23457;51.966;8.230;2022-07-23T08:18:27;101240.91;;;18.74;88.55
37610;BME280;23457;51.966;8.230;2022-07-23T08:20:54;101246.19;;;18.73;86.65
37610;BME280;23457;51.966;8.230;2022-07-23T08:23:20;101246.75;;;19.02;86.33
37610;BME280;23457;51.966;8.230;2022-07-23T08:25:53;101244.78;;;19.24;81.71
37610;BME280;23457;51.966;8.230;2022-07-23T08:28:19;101254.38;;;19.28;83.60
37610;BME280;23457;51.966;8.230;2022-07-23T08:30:46;101255.16;;;19.38;86.66
37610;BME280;23457;51.966;8.230;2022-07-23T08:33:15;101251.53;;;19.46;87.22
37610;BME280;23457;51.966;8.230;2022-07-23T08:36:01;101246.34;;;19.39;79.21
37610;BME280;23457;51.966;8.230;2022-07-23T08:38:29;101247.13;;;19.48;83.57
37610;BME280;23457;51.966;8.230;2022-07-23T08:40:56;101249.81;;;19.45;80.06
37610;BME280;23457;51.966;8.230;2022-07-23T08:43:29;101257.72;;;19.42;81.90
37610;BME280;23457;51.966;8.230;2022-07-23T08:45:58;101257.63;;;19.54;77.66
37610;BME280;23457;51.966;8.230;2022-07-23T08:48:28;101259.19;;;19.71;78.89
37610;BME280;23457;51.966;8.230;2022-07-23T08:50:57;101253.91;;;19.71;83.10
37610;BME280;23457;51.966;8.230;2022-07-23T08:53:25;101248.31;;;19.93;79.04
37610;BME280;23457;51.966;8.230;2022-07-23T08:55:55;101249.00;;;20.06;78.61
37610;BME280;23457;51.966;8.230;2022-07-23T08:58:22;101261.09;;;20.22;76.48
37610;BME280;23457;51.966;8.230;2022-07-23T09:00:54;101266.53;;;20.13;78.95
37610;BME280;23457;51.966;8.230;2022-07-23T09:03:31;101263.81;;;20.15;77.31
37610;BME280;23457;51.966;8.230;2022-07-23T09:05:59;101257.06;;;19.97;77.37
37610;BME280;23457;51.966;8.230;2022-07-23T09:08:34;101264.31;;;19.80;76.56
37610;BME280;23457;51.966;8.230;2022-07-23T09:11:03;101261.25;;;19.41;77.64
37610;BME280;23457;51.966;8.230;2022-07-23T09:13:42;101261.06;;;19.62;81.07
37610;BME280;23457;51.966;8.230;2022-07-23T09:16:14;101259.91;;;19.83;82.71
37610;BME280;23457;51.966;8.230;2022-07-23T09:18:45;101267.44;;;20.11;79.34
37610;BME280;23457;51.966;8.230;2022-07-23T09:21:19;101257.53;;;20.26;74.86
37610;BME280;23457;51.966;8.230;2022-07-23T09:23:51;101263.06;;;20.65;75.94
37610;BME280;23457;51.966;8.230;2022-07-23T09:28:56;101254.38;;;20.60;75.30
37610;BME280;23457;51.966;8.230;2022-07-23T09:31:24;101267.13;;;20.30;71.97
37610;BME280;23457;51.966;8.230;2022-07-23T09:33:51;101263.78;;;20.19;72.42
37610;BME280;23457;51.966;8.230;2022-07-23T09:36:29;101267.84;;;20.42;77.58
37610;BME280;23457;51.966;8.230;2022-07-23T09:38:55;101263.03;;;20.68;75.35
37610;BME280;23457;51.966;8.230;2022-07-23T09:41:22;101272.94;;;21.04;73.30
37610;BME280;23457;51.966;8.230;2022-07-23T09:44:09;101269.59;;;21.42;68.16
37610;BME280;23457;51.966;8.230;2022-07-23T09:46:37;101247.13;;;21.65;74.33
37610;BME280;23457;51.966;8.230;2022-07-23T09:49:16;101257.59;;;21.69;72.34
37610;BME280;23457;51.966;8.230;2022-07-23T09:51:56;101267.75;;;21.48;72.64
37610;BME280;23457;51.966;8.230;2022-07-23T09:54:29;101276.91;;;20.79;69.09
37610;BME280;23457;51.966;8.230;2022-07-23T09:57:09;101263.28;;;20.53;70.05
37610;BME280;23457;51.966;8.230;2022-07-23T09:59:42;101270.72;;;20.80;74.79
37610;BME280;23457;51.966;8.230;2022-07-23T10:02:11;101274.47;;;20.67;69.78
37610;BME280;23457;51.966;8.230;2022-07-23T10:04:39;101276.13;;;20.74;69.77
37610;BME280;23457;51.966;8.230;2022-07-23T10:07:07;101267.81;;;20.97;69.11
37610;BME280;23457;51.966;8.230;2022-07-23T10:09:39;101269.00;;;20.79;67.84
37610;BME280;23457;51.966;8.230;2022-07-23T10:12:12;101261.66;;;20.96;71.43
37610;BME280;23457;51.966;8.230;2022-07-23T10:14:58;101268.19;;;21.26;67.38
37610;BME280;23457;51.966;8.230;2022-07-23T10:17:25;101277.00;;;21.68;72.59
37610;BME280;23457;51.966;8.230;2022-07-23T10:19:52;101265.25;;;21.81;66.21
37610;BME280;23457;51.966;8.230;2022-07-23T10:22:28;101267.56;;;21.97;66.87
37610;BME280;23457;51.966;8.230;2022-07-23T10:27:47;101261.88;;;22.54;67.28
37610;BME280;23457;51.966;8.230;2022-07-23T10:30:20;101259.50;;;22.78;64.80
37610;BME280;23457;51.966;8.230;2022-07-23T10:38:50;101260.56;;;22.70;67.37
37610;BME280;23457;51.966;8.230;2022-07-23T10:41:36;101260.75;;;22.98;58.82
37610;BME280;23457;51.966;8.230;2022-07-23T10:44:11;101257.72;;;22.79;60.25
37610;BME280;23457;51.966;8.230;2022-07-23T10:46:54;101256.94;;;23.08;67.10
37610;BME280;23457;51.966;8.230;2022-07-23T10:49:37;101267.47;;;23.11;66.56
37610;BME280;23457;51.966;8.230;2022-07-23T10:54:48;101254.13;;;23.45;65.75
37610;BME280;23457;51.966;8.230;2022-07-23T10:57:24;101261.13;;;23.47;65.04
37610;BME280;23457;51.966;8.230;2022-07-23T11:02:36;101261.94;;;24.10;59.85
37610;BME280;23457;51.966;8.230;2022-07-23T11:05:06;101257.91;;;24.26;58.07
37610;BME280;23457;51.966;8.230;2022-07-23T11:07:34;101252.53;;;24.00;58.04
37610;BME280;23457;51.966;8.230;2022-07-23T11:10:01;101255.72;;;23.81;57.24
37610;BME280;23457;51.966;8.230;2022-07-23T11:17:28;101258.34;;;24.40;59.75
37610;BME280;23457;51.966;8.230;2022-07-23T11:25:35;101260.25;;;24.07;58.34
37610;BME280;23457;51.966;8.230;2022-07-23T11:28:17;101246.22;;;24.04;55.57
37610;BME280;23457;51.966;8.230;2022-07-23T11:30:48;101257.13;;;24.22;56.53
37610;BME280;23457;51.966;8.230;2022-07-23T11:33:16;101249.06;;;24.53;58.45
37610;BME280;23457;51.966;8.230;2022-07-23T11:35:46;101256.09;;;24.81;64.70
37610;BME280;23457;51.966;8.230;2022-07-23T11:38:20;101252.41;;;24.85;60.80
37610;BME280;23457;51.966;8.230;2022-07-23T11:40:51;101257.44;;;24.94;55.65
37610;BME280;23457;51.966;8.230;2022-07-23T11:43:21;101261.50;;;24.78;58.40
37610;BME280;23457;51.966;8.230;2022-07-23T11:45:50;101256.09;;;24.81;51.18
37610;BME280;23457;51.966;8.230;2022-07-23T11:48:23;101252.09;;;25.44;53.12
37610;BME280;23457;51.966;8.230;2022-07-23T11:50:52;101270.72;;;24.68;53.86
37610;BME280;23457;51.966;8.230;2022-07-23T11:53:28;101257.63;;;24.61;50.75
37610;BME280;23457;51.966;8.230;2022-07-23T11:56:04;101248.97;;;24.56;54.17
37610;BME280;23457;51.966;8.230;2022-07-23T11:58:30;101246.59;;;25.00;52.84
37610;BME280;23457;51.966;8.230;2022-07-23T12:00:57;101243.47;;;24.61;57.27
37610;BME280;23457;51.966;8.230;2022-07-23T12:03:24;101253.06;;;24.11;51.54
37610;BME280;23457;51.966;8.230;2022-07-23T12:05:56;101250.28;;;24.70;55.31
37610;BME280;23457;51.966;8.230;2022-07-23T12:08:23;101243.72;;;24.80;51.68
37610;BME280;23457;51.966;8.230;2022-07-23T12:10:50;101235.38;;;24.90;55.58
37610;BME280;23457;51.966;8.230;2022-07-23T12:13:21;101248.31;;;25.01;49.67
37610;BME280;23457;51.966;8.230;2022-07-23T12:15:53;101247.72;;;24.67;51.28
37610;BME280;23457;51.966;8.230;2022-07-23T12:18:25;101241.66;;;24.88;49.27
37610;BME280;23457;51.966;8.230;2022-07-23T12:21:06;101245.47;;;25.07;49.65
37610;BME280;23457;51.966;8.230;2022-07-23T12:23:34;101246.16;;;25.12;50.85
37610;BME280;23457;51.966;8.230;2022-07-23T12:26:04;101241.16;;;25.03;49.82
37610;BME280;23457;51.966;8.230;2022-07-23T12:28:33;101250.22;;;25.22;51.79
37610;BME280;23457;51.966;8.230;2022-07-23T12:31:02;101249.28;;;25.23;49.51
37610;BME280;23457;51.966;8.230;2022-07-23T12:33:39;101238.47;;;25.76;52.87
37610;BME280;23457;51.966;8.230;2022-07-23T12:36:08;101241.59;;;26.09;51.79
37610;BME280;23457;51.966;8.230;2022-07-23T12:38:41;101245.94;;;26.12;51.82
37610;BME280;23457;51.966;8.230;2022-07-23T12:41:10;101251.19;;;26.13;51.41
37610;BME280;23457;51.966;8.230;2022-07-23T12:43:42;101250.78;;;25.55;47.71
37610;BME280;23457;51.966;8.230;2022-07-23T12:46:15;101240.34;;;25.01;56.58
37610;BME280;23457;51.966;8.230;2022-07-23T12:49:00;101234.22;;;25.94;52.10
37610;BME280;23457;51.966;8.230;2022-07-23T12:51:30;101248.47;;;26.15;52.94
37610;BME280;23457;51.966;8.230;2022-07-23T12:54:05;101239.22;;;26.23;48.81
37610;BME280;23457;51.966;8.230;2022-07-23T12:56:34;101247.66;;;26.13;47.59
37610;BME280;23457;51.966;8.230;2022-07-23T12:59:06;101252.72;;;26.20;48.35
37610;BME280;23457;51.966;8.230;2022-07-23T13:01:41;101250.88;;;26.64;46.58
37610;BME280;23457;51.966;8.230;2022-07-23T13:04:11;101246.06;;;26.09;47.13
37610;BME280;23457;51.966;8.230;2022-07-23T13:06:41;101247.34;;;24.77;47.61
37610;BME280;23457;51.966;8.230;2022-07-23T13:09:14;101251.06;;;24.45;50.68
37610;BME280;23457;51.966;8.230;2022-07-23T13:11:43;101247.81;;;24.90;51.56
37610;BME280;23457;51.966;8.230;2022-07-23T13:14:10;101241.56;;;25.41;47.98
37610;BME280;23457;51.966;8.230;2022-07-23T13:16:38;101248.97;;;26.24;51.44
37610;BME280;23457;51.966;8.230;2022-07-23T13:19:06;101242.72;;;26.47;51.21